Time;durP1;ratioP1;P1;durP2;ratioP2;P2;SDS_P1;SDS_P2;PMS_P1;PMS_P2;Temp;Humidity;BMP_temperature;BMP_pressure;BME280_temperature;BME280_humidity;BME280_pressure;Samples;Min_cycle;Max_cycle;Signal;HPM_P1;HPM_P2
2021/01/31 00:01:05;;;;;;;3.47;3.17;;;1.70;99.90;;;;;;4921563;29;20027;-83
2021/01/31 00:03:33;;;;;;;3.90;2.83;;;1.70;99.90;;;;;;4922124;29;20115;-83
2021/01/31 00:06:03;;;;;;;7.55;3.08;;;1.60;99.90;;;;;;4916341;29;20024;-84
2021/01/31 00:08:39;;;;;;;4.78;3.10;;;1.70;99.90;;;;;;4938297;29;20027;-83
2021/01/31 00:11:18;;;;;;;4.32;3.28;;;1.70;99.90;;;;;;4938228;29;20027;-85
2021/01/31 00:13:45;;;;;;;6.32;3.15;;;1.70;99.90;;;;;;4947120;29;20144;-84
2021/01/31 00:16:12;;;;;;;5.93;3.35;;;1.70;99.90;;;;;;4945436;29;20042;-85
2021/01/31 00:18:43;;;;;;;5.00;3.10;;;1.70;99.90;;;;;;4923581;29;20449;-85
2021/01/31 00:21:12;;;;;;;5.10;3.10;;;1.70;99.90;;;;;;4923173;29;20042;-83
2021/01/31 00:23:38;;;;;;;4.85;3.20;;;1.70;99.90;;;;;;4922563;29;20031;-84
2021/01/31 00:26:29;;;;;;;3.67;3.22;;;1.70;99.90;;;;;;4921355;29;20472;-83
2021/01/31 00:28:55;;;;;;;3.90;3.03;;;1.60;99.90;;;;;;4890012;29;20496;-83
2021/01/31 00:31:23;;;;;;;4.43;3.30;;;1.60;99.90;;;;;;4938061;29;20036;-83
2021/01/31 00:34:03;;;;;;;5.50;3.28;;;1.50;99.90;;;;;;4921673;29;20036;-83
2021/01/31 00:36:29;;;;;;;4.93;3.25;;;1.60;99.90;;;;;;4886965;29;20035;-82
2021/01/31 00:38:57;;;;;;;8.57;3.83;;;1.50;99.90;;;;;;4940479;29;20046;-84
2021/01/31 00:41:27;;;;;;;5.43;3.75;;;1.50;99.90;;;;;;4945222;29;20012;-82
2021/01/31 00:44:04;;;;;;;6.07;4.13;;;1.50;99.90;;;;;;4960592;28;20032;-83
2021/01/31 00:46:35;;;;;;;6.63;4.10;;;1.50;99.90;;;;;;4929750;28;20096;-83
2021/01/31 00:49:01;;;;;;;7.63;3.22;;;1.50;99.90;;;;;;4907065;29;20108;-83
2021/01/31 00:51:30;;;;;;;4.53;3.15;;;1.50;99.90;;;;;;4927900;29;20025;-83
2021/01/31 00:53:57;;;;;;;4.82;3.50;;;1.50;99.90;;;;;;4888684;29;20041;-83
2021/01/31 00:56:29;;;;;;;4.85;3.38;;;1.40;99.90;;;;;;4915336;29;20076;-84
2021/01/31 00:58:54;;;;;;;6.38;4.25;;;1.50;99.90;;;;;;4904764;29;20072;-83
2021/01/31 01:01:22;;;;;;;6.18;3.55;;;1.40;99.90;;;;;;4907546;29;20028;-84
2021/01/31 01:03:51;;;;;;;7.15;3.53;;;1.40;99.90;;;;;;4891795;29;20058;-84
2021/01/31 01:06:17;;;;;;;4.88;3.70;;;1.40;99.90;;;;;;4896274;29;20052;-84
2021/01/31 01:08:44;;;;;;;7.53;4.20;;;1.40;99.90;;;;;;4906770;29;20024;-83
2021/01/31 01:11:13;;;;;;;5.38;3.60;;;1.40;99.90;;;;;;4906411;29;20025;-83
2021/01/31 01:13:44;;;;;;;6.40;3.42;;;1.40;99.90;;;;;;4897825;29;20109;-84
2021/01/31 01:16:11;;;;;;;5.72;3.53;;;1.40;99.90;;;;;;4904916;29;20029;-82
2021/01/31 01:18:39;;;;;;;6.80;4.22;;;1.40;99.90;;;;;;4860310;29;20100;-83
2021/01/31 01:21:05;;;;;;;5.35;3.72;;;1.40;99.90;;;;;;4876669;29;20044;-84
2021/01/31 01:23:32;;;;;;;6.05;4.13;;;1.40;99.90;;;;;;4892609;29;20028;-84
2021/01/31 01:25:58;;;;;;;6.57;3.63;;;1.30;99.90;;;;;;4903837;29;20067;-84
2021/01/31 01:28:24;;;;;;;4.95;3.63;;;1.30;99.90;;;;;;4933254;29;20391;-83
2021/01/31 01:30:49;;;;;;;6.93;3.65;;;1.40;99.90;;;;;;4941457;29;20031;-84
2021/01/31 01:33:16;;;;;;;5.90;3.63;;;1.30;99.90;;;;;;4928261;29;20036;-83
2021/01/31 01:35:48;;;;;;;6.15;3.38;;;1.30;99.90;;;;;;4921729;29;20059;-84
2021/01/31 01:38:15;;;;;;;;;;;1.20;99.90;;;;;;4933052;29;20036;-84
2021/01/31 01:40:41;;;;;;;5.35;3.30;;;1.20;99.90;;;;;;4923387;29;20013;-84
2021/01/31 01:43:15;;;;;;;5.43;3.40;;;1.20;99.90;;;;;;4934168;29;20024;-84
2021/01/31 01:45:42;;;;;;;8.32;4.75;;;1.20;99.90;;;;;;4925347;29;20147;-84
2021/01/31 01:48:22;;;;;;;7.30;4.22;;;1.20;99.90;;;;;;4919368;29;20059;-84
2021/01/31 01:50:54;;;;;;;5.53;3.63;;;1.10;99.90;;;;;;4937305;29;20500;-84
2021/01/31 01:53:21;;;;;;;;;;;1.20;99.90;;;;;;4926788;29;20122;-84
2021/01/31 01:55:58;;;;;;;5.70;3.58;;;1.10;99.90;;;;;;4921605;29;19966;-84
2021/01/31 01:58:28;;;;;;;6.53;4.13;;;1.10;99.90;;;;;;4919818;29;20061;-84
2021/01/31 02:01:00;;;;;;;7.10;4.13;;;1.10;99.90;;;;;;4920259;29;20028;-87
2021/01/31 02:03:31;;;;;;;8.15;3.80;;;1.10;99.90;;;;;;4897789;29;20041;-83
2021/01/31 02:06:02;;;;;;;;;;;1.00;99.90;;;;;;4895674;29;20029;-83
2021/01/31 02:08:29;;;;;;;7.00;4.45;;;1.10;99.90;;;;;;4894411;29;19916;-86
2021/01/31 02:10:56;;;;;;;8.02;4.45;;;1.00;99.90;;;;;;4899798;29;20049;-85
2021/01/31 02:13:25;;;;;;;5.97;3.85;;;0.90;99.90;;;;;;4886306;29;20045;-84
2021/01/31 02:15:55;;;;;;;6.75;4.57;;;0.90;99.90;;;;;;4860057;29;20477;-85
2021/01/31 02:18:40;;;;;;;7.90;4.15;;;0.90;99.90;;;;;;4888359;29;20187;-84
2021/01/31 02:21:57;;;;;;;8.25;4.60;;;0.90;99.90;;;;;;4892385;29;20053;-85
2021/01/31 02:24:58;;;;;;;7.47;4.60;;;0.80;99.90;;;;;;4825687;29;20121;-84
2021/01/31 02:27:47;;;;;;;;;;;0.70;99.90;;;;;;4841408;29;20045;-84
2021/01/31 02:30:34;;;;;;;10.00;4.75;;;0.70;99.90;;;;;;4835892;29;20140;-84
2021/01/31 02:33:17;;;;;;;7.63;4.55;;;0.60;99.90;;;;;;4865460;29;20061;-83
2021/01/31 02:35:45;;;;;;;9.18;5.18;;;0.60;99.90;;;;;;4840612;29;20701;-84
2021/01/31 02:38:29;;;;;;;6.55;4.20;;;0.60;99.90;;;;;;4840843;29;20057;-85
2021/01/31 02:41:12;;;;;;;7.20;4.28;;;0.60;99.90;;;;;;4804672;29;20118;-86
2021/01/31 02:44:09;;;;;;;7.93;4.72;;;0.60;99.90;;;;;;4803128;29;20140;-83
2021/01/31 02:46:50;;;;;;;8.50;5.13;;;0.50;99.90;;;;;;4778763;29;20039;-85
2021/01/31 02:49:25;;;;;;;10.32;5.45;;;0.40;99.90;;;;;;4804352;29;20034;-85
2021/01/31 02:52:11;;;;;;;8.13;4.70;;;0.40;99.90;;;;;;4791176;29;20634;-85
2021/01/31 02:54:53;;;;;;;8.95;5.57;;;0.30;99.90;;;;;;4831030;29;20341;-85
2021/01/31 02:57:27;;;;;;;9.63;5.32;;;0.20;99.90;;;;;;4860084;29;20450;-84
2021/01/31 03:00:06;;;;;;;8.93;5.15;;;0.20;99.90;;;;;;4877573;29;20530;-83
2021/01/31 03:02:38;;;;;;;13.32;6.53;;;0.20;99.90;;;;;;4854941;29;20136;-83
2021/01/31 03:05:11;;;;;;;10.23;6.13;;;0.20;99.90;;;;;;4878691;29;20037;-84
2021/01/31 03:08:11;;;;;;;9.15;5.72;;;0.30;99.90;;;;;;4896682;29;20032;-84
2021/01/31 03:11:02;;;;;;;12.23;5.65;;;0.20;99.90;;;;;;4875283;29;20045;-83
2021/01/31 03:13:53;;;;;;;9.38;5.45;;;0.20;99.90;;;;;;4903983;29;20032;-84
2021/01/31 03:16:38;;;;;;;9.20;5.80;;;0.20;99.90;;;;;;4897935;29;20036;-83
2021/01/31 03:19:23;;;;;;;9.50;5.57;;;0.20;99.90;;;;;;4893885;29;20488;-83
2021/01/31 03:21:57;;;;;;;11.05;6.00;;;0.20;99.90;;;;;;4898826;29;20041;-83
2021/01/31 03:24:32;;;;;;;9.82;6.05;;;0.20;99.90;;;;;;4886085;29;20604;-83
2021/01/31 03:27:28;;;;;;;10.73;5.30;;;0.00;99.90;;;;;;4918666;29;20031;-82
2021/01/31 03:29:56;;;;;;;9.82;5.45;;;0.00;99.90;;;;;;4928124;29;20039;-82
2021/01/31 03:32:27;;;;;;;14.63;6.97;;;-0.10;99.90;;;;;;4903769;29;20046;-83
2021/01/31 03:35:04;;;;;;;11.30;6.18;;;-0.10;99.90;;;;;;4878310;29;20040;-83
2021/01/31 03:37:42;;;;;;;10.38;6.07;;;-0.10;99.90;;;;;;4930743;29;20028;-83
2021/01/31 03:40:09;;;;;;;10.48;5.88;;;-0.10;99.90;;;;;;4919384;29;20038;-83
2021/01/31 03:42:36;;;;;;;11.68;6.55;;;-0.20;99.90;;;;;;4877142;29;20113;-84
2021/01/31 03:45:08;;;;;;;13.10;6.10;;;-0.30;99.90;;;;;;4862381;29;20033;-83
2021/01/31 03:47:50;;;;;;;10.05;6.13;;;-0.40;99.90;;;;;;4845373;29;20048;-85
2021/01/31 03:50:18;;;;;;;11.32;6.53;;;-0.50;99.90;;;;;;4877296;29;20096;-84
2021/01/31 03:52:44;;;;;;;12.80;6.45;;;-0.50;99.90;;;;;;4880516;29;20119;-83
2021/01/31 03:55:11;;;;;;;14.52;6.90;;;-0.70;99.90;;;;;;4851651;29;20046;-83
2021/01/31 03:57:44;;;;;;;12.48;6.55;;;-0.70;99.90;;;;;;4858771;29;20065;-84
2021/01/31 04:00:20;;;;;;;13.57;6.70;;;-0.50;99.90;;;;;;4844825;29;20018;-83
2021/01/31 04:03:17;;;;;;;12.30;6.15;;;-0.60;99.90;;;;;;4843831;29;20038;-84
2021/01/31 04:06:13;;;;;;;12.65;7.03;;;-0.70;99.90;;;;;;4839486;29;20056;-84
2021/01/31 04:08:41;;;;;;;13.02;7.00;;;-0.70;99.90;;;;;;4835887;29;20057;-83
2021/01/31 04:11:07;;;;;;;14.48;8.02;;;-0.70;99.90;;;;;;4828213;29;20042;-84
2021/01/31 04:13:37;;;;;;;11.90;6.13;;;-0.70;99.90;;;;;;4830417;29;20485;-83
2021/01/31 04:16:06;;;;;;;11.15;6.60;;;-0.70;99.90;;;;;;4827344;29;20099;-83
2021/01/31 04:18:32;;;;;;;13.50;7.25;;;-0.60;99.90;;;;;;4815345;29;20066;-84
2021/01/31 04:20:59;;;;;;;15.55;7.32;;;-0.60;99.90;;;;;;4831195;29;20070;-82
2021/01/31 04:23:26;;;;;;;13.50;7.78;;;-0.60;99.90;;;;;;4815990;29;20050;-83
2021/01/31 04:25:57;;;;;;;11.60;7.10;;;-0.60;99.90;;;;;;4841371;29;20030;-85
2021/01/31 04:28:25;;;;;;;;;;;-0.60;99.90;;;;;;4855989;29;20099;-85
2021/01/31 04:30:59;;;;;;;12.65;7.75;;;-0.60;99.90;;;;;;4867517;29;19948;-84
2021/01/31 04:33:31;;;;;;;14.05;8.23;;;-0.70;99.90;;;;;;4867036;29;20063;-84
2021/01/31 04:36:01;;;;;;;13.32;8.32;;;-0.60;99.90;;;;;;4859881;29;20027;-85
2021/01/31 04:38:30;;;;;;;14.77;7.47;;;-0.70;99.90;;;;;;4865335;29;20041;-83
2021/01/31 04:41:00;;;;;;;14.57;7.85;;;-0.70;99.90;;;;;;4865509;29;20045;-84
2021/01/31 04:43:33;;;;;;;16.40;7.60;;;-0.70;99.90;;;;;;4919444;29;20043;-85
2021/01/31 04:46:13;;;;;;;14.52;7.88;;;-0.80;99.90;;;;;;4937942;28;20036;-83
2021/01/31 04:49:02;;;;;;;12.48;7.63;;;-0.90;99.90;;;;;;4881974;29;20428;-83
2021/01/31 04:51:36;;;;;;;15.07;8.05;;;-0.90;99.90;;;;;;4879487;29;20052;-83
2021/01/31 04:54:45;;;;;;;15.98;8.75;;;-0.90;99.90;;;;;;4891850;29;20041;-83
2021/01/31 04:57:23;;;;;;;16.48;8.85;;;-0.90;99.90;;;;;;4847794;29;20053;-84
2021/01/31 04:59:54;;;;;;;12.35;6.63;;;-0.90;99.90;;;;;;4892713;29;20040;-84
2021/01/31 05:02:26;;;;;;;17.20;8.35;;;-1.00;99.90;;;;;;4883033;29;20032;-82
2021/01/31 05:04:53;;;;;;;;;;;-1.00;99.90;;;;;;4886094;29;20596;-83
2021/01/31 05:07:28;;;;;;;14.43;7.97;;;-1.10;99.90;;;;;;4879149;29;20045;-83
2021/01/31 05:09:53;;;;;;;15.13;8.40;;;-1.10;99.90;;;;;;4865001;29;20037;-86
2021/01/31 05:13:07;;;;;;;16.33;8.05;;;-1.00;99.90;;;;;;4878580;29;20029;-83
2021/01/31 05:15:47;;;;;;;14.00;8.27;;;-1.00;99.90;;;;;;4828542;29;20385;-83
2021/01/31 05:18:16;;;;;;;14.68;8.27;;;-1.10;99.90;;;;;;4887776;29;20141;-84
2021/01/31 05:20:44;;;;;;;14.35;8.15;;;-1.10;99.90;;;;;;4886584;29;20119;-83
2021/01/31 05:23:17;;;;;;;16.15;8.30;;;-1.00;99.90;;;;;;4884762;29;20508;-83
2021/01/31 05:25:44;;;;;;;15.10;8.45;;;-1.10;99.90;;;;;;4878889;29;20041;-84
2021/01/31 05:28:11;;;;;;;14.98;7.47;;;-1.10;99.90;;;;;;4885022;29;20037;-84
2021/01/31 05:30:50;;;;;;;16.67;8.50;;;-1.20;99.90;;;;;;4886137;29;20037;-84
2021/01/31 05:33:21;;;;;;;13.00;8.05;;;-1.30;99.90;;;;;;4869318;29;20033;-83
2021/01/31 05:36:21;;;;;;;16.85;9.02;;;-1.20;99.90;;;;;;4886732;29;20049;-84
2021/01/31 05:38:54;;;;;;;;;;;-1.10;99.90;;;;;;4884350;29;20036;-83
2021/01/31 05:41:45;;;;;;;16.27;8.95;;;-1.10;99.90;;;;;;4892385;29;19911;-83
2021/01/31 05:44:37;;;;;;;14.50;7.80;;;-1.10;99.90;;;;;;4878602;29;20029;-83
2021/01/31 05:47:24;;;;;;;14.05;8.18;;;-1.10;99.90;;;;;;4831194;29;20417;-83
2021/01/31 05:49:53;;;;;;;17.83;8.98;;;-1.10;99.90;;;;;;4840612;29;20041;-84
2021/01/31 05:52:22;;;;;;;11.38;7.60;;;-1.10;99.90;;;;;;4829811;29;20472;-84
2021/01/31 05:54:50;;;;;;;16.90;8.55;;;-1.20;99.90;;;;;;4813630;29;20536;-84
2021/01/31 05:57:28;;;;;;;16.70;8.90;;;-1.20;99.90;;;;;;4809422;29;20051;-84
2021/01/31 05:59:55;;;;;;;15.57;8.65;;;-1.20;99.90;;;;;;4799587;29;20038;-85
2021/01/31 06:02:27;;;;;;;16.42;8.95;;;-1.20;99.90;;;;;;4809469;29;20035;-85
2021/01/31 06:05:21;;;;;;;14.68;8.57;;;-1.20;99.90;;;;;;4804230;29;20068;-85
2021/01/31 06:08:09;;;;;;;16.27;8.68;;;-1.20;99.90;;;;;;4798747;29;20042;-85
2021/01/31 06:10:39;;;;;;;17.58;9.30;;;-1.40;99.90;;;;;;4806311;29;20110;-84
2021/01/31 06:13:27;;;;;;;16.05;8.32;;;-1.40;99.90;;;;;;4803271;29;20038;-84
2021/01/31 06:16:02;;;;;;;13.88;7.93;;;-1.40;99.90;;;;;;4756610;30;20387;-84
2021/01/31 06:18:44;;;;;;;17.55;9.02;;;-1.40;99.90;;;;;;4751050;30;20156;-84
2021/01/31 06:21:18;;;;;;;15.77;8.25;;;-1.50;99.90;;;;;;4731771;30;20495;-84
2021/01/31 06:23:47;;;;;;;17.55;9.70;;;-1.50;99.90;;;;;;4780158;29;20137;-84
2021/01/31 06:26:31;;;;;;;15.65;8.10;;;-1.70;99.90;;;;;;4834460;29;20058;-84
2021/01/31 06:29:17;;;;;;;16.52;9.35;;;-1.50;99.90;;;;;;4855422;29;20037;-84
2021/01/31 06:31:53;;;;;;;15.40;8.50;;;-1.60;99.90;;;;;;4849590;29;20034;-84
2021/01/31 06:34:21;;;;;;;16.15;8.05;;;-1.50;99.90;;;;;;4856891;29;20081;-85
2021/01/31 06:37:10;;;;;;;17.55;9.18;;;-1.50;99.90;;;;;;4825197;29;20448;-83
2021/01/31 06:40:09;;;;;;;15.88;8.95;;;-1.50;99.90;;;;;;4804256;29;20046;-82
2021/01/31 06:43:22;;;;;;;16.92;9.35;;;-1.40;99.90;;;;;;4791420;29;20035;-83
2021/01/31 06:46:16;;;;;;;15.82;9.40;;;-1.40;99.90;;;;;;4803835;29;20277;-85
2021/01/31 06:48:50;;;;;;;18.13;9.30;;;-1.60;99.90;;;;;;4803647;29;20039;-84
2021/01/31 06:51:42;;;;;;;19.23;9.00;;;-1.60;99.90;;;;;;4803581;29;20093;-83
2021/01/31 06:54:44;;;;;;;13.80;8.23;;;-1.80;99.90;;;;;;4802981;29;20066;-84
2021/01/31 06:57:48;;;;;;;17.58;10.63;;;-1.90;99.90;;;;;;4803771;29;20043;-85
2021/01/31 07:00:56;;;;;;;17.50;8.63;;;-2.00;99.90;;;;;;4803028;29;20038;-87
2021/01/31 07:07:12;;;;;;;19.20;9.40;;;-2.10;99.90;;;;;;4812801;29;20091;-86
2021/01/31 07:10:05;;;;;;;19.42;9.18;;;-2.10;99.90;;;;;;4824197;29;20035;-86
2021/01/31 07:13:03;;;;;;;17.00;9.20;;;-2.00;99.90;;;;;;4804806;29;20042;-86
2021/01/31 07:15:41;;;;;;;14.18;8.48;;;-2.20;99.90;;;;;;4803830;29;20112;-84
2021/01/31 07:18:10;;;;;;;20.90;10.10;;;-2.00;99.90;;;;;;4826413;29;20045;-85
2021/01/31 07:20:47;;;;;;;16.83;9.38;;;-1.80;99.90;;;;;;4841736;29;20120;-85
2021/01/31 07:23:36;;;;;;;20.40;9.65;;;-1.70;99.90;;;;;;4834831;29;20018;-85
2021/01/31 07:26:17;;;;;;;18.42;9.85;;;-1.60;99.90;;;;;;4866959;29;20591;-83
2021/01/31 07:28:44;;;;;;;17.17;9.02;;;-1.40;99.90;;;;;;4870460;29;20120;-82
2021/01/31 07:31:20;;;;;;;16.50;8.82;;;-1.50;99.90;;;;;;4879955;29;20056;-84
2021/01/31 07:33:50;;;;;;;17.95;9.23;;;-1.40;99.90;;;;;;4882174;29;20450;-84
2021/01/31 07:36:32;;;;;;;18.23;9.50;;;-1.30;99.90;;;;;;4883826;29;20100;-86
2021/01/31 07:39:22;;;;;;;15.95;9.52;;;-1.30;99.90;;;;;;4899162;29;20474;-85
2021/01/31 07:41:56;;;;;;;18.17;9.25;;;-1.30;99.90;;;;;;4885297;29;20436;-85
2021/01/31 07:44:38;;;;;;;18.17;8.85;;;-1.30;99.90;;;;;;4883641;29;20028;-85
2021/01/31 07:47:16;;;;;;;17.92;8.82;;;-1.30;99.90;;;;;;4897500;29;20403;-85
2021/01/31 07:50:07;;;;;;;14.98;8.05;;;-1.30;99.90;;;;;;4883908;29;20032;-85
2021/01/31 07:52:56;;;;;;;18.20;9.23;;;-1.30;99.90;;;;;;4899217;29;20040;-86
2021/01/31 07:55:48;;;;;;;20.63;10.38;;;-1.30;99.90;;;;;;4883405;29;20390;-85
2021/01/31 07:58:58;;;;;;;16.40;9.20;;;-1.30;99.90;;;;;;4914667;29;20075;-85
2021/01/31 08:01:56;;;;;;;17.42;9.05;;;-1.40;99.90;;;;;;4864366;29;20025;-86
2021/01/31 08:04:35;;;;;;;18.60;9.20;;;-1.30;99.90;;;;;;4873110;29;20387;-86
2021/01/31 08:07:08;;;;;;;18.60;10.55;;;-1.20;99.90;;;;;;4863633;29;20124;-85
2021/01/31 08:10:00;;;;;;;15.52;9.60;;;-1.20;99.90;;;;;;4879471;29;20371;-84
2021/01/31 08:12:57;;;;;;;16.48;9.07;;;-1.10;99.90;;;;;;4882037;29;20041;-85
2021/01/31 08:15:41;;;;;;;16.38;8.70;;;-1.10;99.90;;;;;;4865019;29;20051;-86
2021/01/31 08:18:08;;;;;;;13.07;8.60;;;-1.00;99.90;;;;;;4856717;29;20495;-85
2021/01/31 08:20:58;;;;;;;16.33;8.52;;;-1.10;99.90;;;;;;4835709;29;20037;-86
2021/01/31 08:23:55;;;;;;;15.63;8.77;;;-1.00;99.90;;;;;;4852247;29;20253;-86
2021/01/31 08:26:53;;;;;;;14.35;8.40;;;-1.00;99.90;;;;;;4884985;29;20132;-87
2021/01/31 08:29:43;;;;;;;17.63;9.05;;;-0.80;99.90;;;;;;4869245;29;20045;-89
2021/01/31 08:35:11;;;;;;;;;;;-0.80;99.90;;;;;;4959773;28;20047;-87
2021/01/31 08:38:28;;;;;;;15.95;8.40;;;-0.80;99.90;;;;;;4937241;28;19915;-87
2021/01/31 08:41:05;;;;;;;13.23;7.80;;;-0.70;99.90;;;;;;4950800;28;20036;-83
2021/01/31 08:43:57;;;;;;;15.30;9.25;;;-0.70;99.90;;;;;;4945331;29;20024;-83
2021/01/31 08:46:34;;;;;;;17.90;8.85;;;-0.60;99.90;;;;;;4921243;29;20028;-83
2021/01/31 08:49:15;;;;;;;15.07;8.32;;;-0.50;99.90;;;;;;4907774;29;20462;-84
2021/01/31 08:52:02;;;;;;;14.38;8.88;;;-0.40;99.90;;;;;;4907515;29;20059;-83
2021/01/31 08:54:39;;;;;;;16.60;8.75;;;-0.30;99.90;;;;;;4938124;29;20046;-86
2021/01/31 08:57:14;;;;;;;17.98;8.48;;;-0.20;99.90;;;;;;4929095;29;20031;-82
2021/01/31 08:59:50;;;;;;;15.07;8.57;;;-0.20;99.90;;;;;;4927069;29;20039;-84
2021/01/31 09:02:34;;;;;;;18.77;8.45;;;-0.20;99.90;;;;;;4935819;29;20024;-84
2021/01/31 09:05:18;;;;;;;17.30;9.95;;;-0.10;99.90;;;;;;4933311;29;20074;-85
2021/01/31 09:08:00;;;;;;;16.75;8.80;;;-0.10;99.90;;;;;;4905963;29;20036;-86
2021/01/31 09:10:40;;;;;;;17.98;8.77;;;0.00;99.90;;;;;;4914519;29;20035;-83
2021/01/31 09:13:41;;;;;;;15.52;8.13;;;0.10;99.90;;;;;;4941282;29;20038;-88
2021/01/31 09:16:26;;;;;;;17.73;9.32;;;0.20;99.90;;;;;;4867365;29;20057;-84
2021/01/31 09:19:24;;;;;;;17.25;9.07;;;0.20;99.90;;;;;;4864974;29;20089;-83
2021/01/31 09:22:11;;;;;;;17.23;10.30;;;0.30;99.90;;;;;;4875467;29;20056;-83
2021/01/31 09:24:46;;;;;;;12.98;8.00;;;0.40;99.90;;;;;;4856479;29;20097;-84
2021/01/31 09:27:23;;;;;;;14.48;7.47;;;0.30;99.90;;;;;;4869470;29;20072;-85
2021/01/31 09:29:57;;;;;;;15.65;7.88;;;0.40;99.90;;;;;;4883184;29;20017;-83
2021/01/31 09:32:31;;;;;;;13.70;7.65;;;0.50;99.90;;;;;;4841019;29;20098;-85
2021/01/31 09:35:00;;;;;;;12.85;7.25;;;0.70;99.90;;;;;;4885479;29;20045;-85
2021/01/31 09:37:32;;;;;;;15.02;7.70;;;0.80;99.90;;;;;;4868746;29;20028;-84
2021/01/31 09:40:05;;;;;;;13.95;8.50;;;0.80;99.90;;;;;;4884056;29;20037;-84
2021/01/31 09:42:34;;;;;;;13.77;7.45;;;0.90;99.90;;;;;;4883834;29;20037;-85
2021/01/31 09:45:10;;;;;;;13.13;7.70;;;0.90;99.90;;;;;;4961338;23;20054;-84
2021/01/31 09:47:41;;;;;;;11.95;7.13;;;0.90;99.90;;;;;;4929644;29;20043;-85
2021/01/31 09:50:13;;;;;;;11.60;6.57;;;0.90;99.90;;;;;;4941168;29;20041;-84
2021/01/31 09:53:04;;;;;;;12.48;6.72;;;1.10;99.90;;;;;;4942428;28;20111;-83
2021/01/31 09:55:32;;;;;;;13.73;7.70;;;1.00;99.90;;;;;;4938519;29;20035;-83
2021/01/31 09:58:00;;;;;;;15.07;8.45;;;1.00;99.90;;;;;;4921166;28;20051;-85
2021/01/31 10:00:36;;;;;;;12.40;7.57;;;1.00;99.90;;;;;;4912793;29;20057;-83
2021/01/31 10:03:07;;;;;;;14.05;7.78;;;1.10;99.90;;;;;;4880043;29;20033;-86
2021/01/31 10:05:36;;;;;;;13.77;7.55;;;1.10;99.90;;;;;;4851426;29;20038;-87
2021/01/31 10:08:13;;;;;;;13.57;7.97;;;1.10;99.90;;;;;;4919317;23;20044;-86
2021/01/31 10:13:42;;;;;;;11.63;6.75;;;1.30;99.90;;;;;;4927444;29;20043;-85
2021/01/31 10:16:31;;;;;;;11.75;7.10;;;1.30;99.90;;;;;;4937613;29;20039;-83
2021/01/31 10:19:26;;;;;;;13.93;7.10;;;1.30;99.90;;;;;;4931344;29;20055;-84
2021/01/31 10:22:29;;;;;;;15.73;7.85;;;1.40;99.90;;;;;;4898076;29;20048;-87
2021/01/31 10:25:11;;;;;;;13.57;8.50;;;1.50;99.90;;;;;;4921325;28;20027;-89
2021/01/31 10:27:47;;;;;;;16.13;7.78;;;1.50;99.90;;;;;;4933274;28;20048;-83
2021/01/31 10:30:41;;;;;;;12.82;7.45;;;1.60;99.90;;;;;;4930957;29;20032;-83
2021/01/31 10:33:35;;;;;;;11.45;7.55;;;1.60;99.90;;;;;;4916308;29;20040;-85
2021/01/31 10:36:35;;;;;;;11.85;6.85;;;1.70;99.90;;;;;;4927014;28;20040;-82
2021/01/31 10:39:26;;;;;;;14.63;7.10;;;1.80;99.90;;;;;;4857380;29;20046;-83
2021/01/31 10:41:55;;;;;;;12.32;7.57;;;1.90;99.90;;;;;;4830369;29;20035;-81
2021/01/31 10:44:32;;;;;;;12.98;7.60;;;2.10;99.90;;;;;;4780572;30;20474;-81
2021/01/31 10:46:59;;;;;;;10.93;6.75;;;2.00;99.90;;;;;;4786711;30;20043;-81
2021/01/31 10:49:26;;;;;;;13.60;7.15;;;2.30;99.90;;;;;;4798873;29;20067;-81
2021/01/31 10:52:14;;;;;;;10.02;6.63;;;2.50;99.90;;;;;;4786263;29;20057;-81
2021/01/31 10:54:52;;;;;;;10.52;6.13;;;2.60;99.90;;;;;;4817925;29;20054;-81
2021/01/31 10:57:23;;;;;;;12.20;6.45;;;2.70;99.90;;;;;;4805510;29;20047;-83
2021/01/31 10:59:51;;;;;;;12.27;6.47;;;2.70;99.90;;;;;;4775920;29;20074;-81
2021/01/31 11:02:18;;;;;;;9.15;5.80;;;2.70;99.90;;;;;;4801116;29;20043;-83
2021/01/31 11:04:47;;;;;;;10.27;6.30;;;2.80;99.90;;;;;;4799487;29;20414;-83
2021/01/31 11:07:19;;;;;;;9.27;6.03;;;2.70;99.90;;;;;;4787411;29;20030;-81
2021/01/31 11:09:53;;;;;;;10.75;6.57;;;2.60;99.90;;;;;;4815523;29;20054;-82
2021/01/31 11:12:48;;;;;;;9.38;4.82;;;2.80;99.90;;;;;;4861814;29;20076;-82
2021/01/31 11:15:15;;;;;;;9.18;5.28;;;2.80;99.90;;;;;;4878266;29;20040;-84
2021/01/31 11:17:42;;;;;;;7.93;4.65;;;2.90;99.90;;;;;;4926438;29;20047;-83
2021/01/31 11:20:10;;;;;;;6.95;4.20;;;2.90;99.90;;;;;;4916120;29;20032;-83
2021/01/31 11:22:42;;;;;;;8.80;4.75;;;2.90;99.90;;;;;;4910746;29;20036;-83
2021/01/31 11:25:11;;;;;;;7.18;4.15;;;3.00;99.90;;;;;;4929300;29;20040;-83
2021/01/31 11:27:38;;;;;;;8.48;4.95;;;2.70;99.90;;;;;;4922943;29;20028;-83
2021/01/31 11:30:06;;;;;;;6.28;3.95;;;2.80;99.90;;;;;;4936973;29;20072;-84
2021/01/31 11:32:33;;;;;;;6.55;3.95;;;3.00;99.90;;;;;;4921914;29;20032;-83
2021/01/31 11:35:13;;;;;;;6.78;4.07;;;3.00;99.90;;;;;;4878376;29;20124;-83
2021/01/31 11:37:39;;;;;;;7.15;4.32;;;3.00;99.90;;;;;;4917865;29;20092;-84
2021/01/31 11:40:09;;;;;;;7.70;4.72;;;3.00;99.90;;;;;;4923166;29;20036;-84
2021/01/31 11:42:48;;;;;;;8.52;4.43;;;3.10;99.90;;;;;;4888608;29;20470;-85
2021/01/31 11:45:31;;;;;;;8.45;4.75;;;3.20;99.90;;;;;;4888550;29;20095;-85
2021/01/31 11:48:02;;;;;;;7.95;5.10;;;3.40;99.90;;;;;;4856976;29;20040;-83
2021/01/31 11:50:29;;;;;;;8.55;4.72;;;3.10;99.90;;;;;;4896827;29;20033;-84
2021/01/31 11:52:55;;;;;;;10.23;5.38;;;3.00;99.90;;;;;;4894035;29;20044;-82
2021/01/31 11:55:41;;;;;;;8.52;4.55;;;3.10;99.90;;;;;;4915399;29;20064;-87
2021/01/31 12:01:32;;;;;;;6.43;4.15;;;2.90;99.90;;;;;;4919564;29;20067;-84
2021/01/31 12:04:28;;;;;;;9.50;5.43;;;3.00;99.90;;;;;;4913638;29;20613;-83
2021/01/31 12:06:53;;;;;;;5.15;3.72;;;3.00;99.90;;;;;;4906594;29;20036;-83
2021/01/31 12:09:19;;;;;;;7.38;4.53;;;3.00;99.90;;;;;;4908104;29;20462;-89
2021/01/31 12:11:48;;;;;;;8.07;4.75;;;3.00;99.90;;;;;;4922420;29;20024;-83
2021/01/31 12:14:25;;;;;;;7.80;4.80;;;3.00;99.90;;;;;;4904515;29;20116;-84
2021/01/31 12:16:57;;;;;;;8.77;5.38;;;2.80;99.90;;;;;;4902680;29;20406;-83
2021/01/31 12:19:41;;;;;;;8.73;5.32;;;2.80;99.90;;;;;;4880930;29;20475;-84
2021/01/31 12:22:08;;;;;;;12.88;5.20;;;2.90;99.90;;;;;;4902799;29;20040;-82
2021/01/31 12:24:36;;;;;;;9.80;5.40;;;2.90;99.90;;;;;;4866510;29;20037;-82
2021/01/31 12:27:06;;;;;;;12.38;5.13;;;2.80;99.90;;;;;;4858887;29;20038;-84
2021/01/31 12:29:37;;;;;;;6.65;4.60;;;3.00;99.90;;;;;;4850748;29;20041;-84
2021/01/31 12:35:40;;;;;;;8.45;4.88;;;3.30;99.90;;;;;;5162237;23;20055;-84
2021/01/31 12:38:06;;;;;;;6.80;4.57;;;3.20;99.90;;;;;;4910018;29;20044;-84
2021/01/31 12:40:33;;;;;;;8.05;4.50;;;3.30;99.90;;;;;;4911500;29;20043;-84
2021/01/31 12:46:11;;;;;;;8.23;5.13;;;3.30;99.90;;;;;;4902515;29;20067;-83
2021/01/31 12:48:49;;;;;;;6.18;4.07;;;3.40;99.90;;;;;;4905617;29;20043;-84
2021/01/31 12:51:15;;;;;;;7.45;4.97;;;3.60;99.90;;;;;;4914818;29;20027;-82
2021/01/31 12:53:44;;;;;;;6.40;4.05;;;3.50;99.90;;;;;;4918386;29;20040;-82
2021/01/31 12:56:17;;;;;;;7.95;4.80;;;3.60;99.90;;;;;;4916260;29;20039;-84
2021/01/31 12:58:50;;;;;;;6.93;4.55;;;3.70;99.90;;;;;;4905702;29;20033;-83
2021/01/31 13:01:19;;;;;;;7.35;4.93;;;3.90;99.90;;;;;;4872162;29;20664;-83
2021/01/31 13:03:45;;;;;;;9.73;5.38;;;4.20;99.90;;;;;;4900220;29;20044;-82
2021/01/31 13:06:15;;;;;;;9.73;5.03;;;4.30;99.90;;;;;;4883751;29;20225;-82
2021/01/31 13:08:43;;;;;;;9.70;5.70;;;4.30;99.90;;;;;;4904569;29;20040;-83
2021/01/31 13:11:14;;;;;;;8.88;5.57;;;4.40;99.90;;;;;;4937161;29;20136;-83
2021/01/31 13:13:46;;;;;;;;;;;4.50;99.90;;;;;;4892762;29;20060;-83
2021/01/31 13:16:13;;;;;;;8.38;5.20;;;4.40;99.90;;;;;;4881833;29;19919;-84
2021/01/31 13:18:48;;;;;;;8.73;5.32;;;4.40;99.90;;;;;;4868372;29;20040;-83
2021/01/31 13:21:15;;;;;;;10.73;5.90;;;4.40;99.90;;;;;;4902828;29;20033;-83
2021/01/31 13:23:50;;;;;;;11.23;7.22;;;4.40;99.90;;;;;;4888346;29;20140;-83
2021/01/31 13:26:24;;;;;;;12.73;6.45;;;4.40;99.90;;;;;;4884553;29;20053;-83
2021/01/31 13:28:57;;;;;;;8.65;5.47;;;4.40;99.90;;;;;;4905784;29;20037;-82
2021/01/31 13:31:27;;;;;;;11.50;6.53;;;4.50;99.90;;;;;;4887151;29;20039;-83
2021/01/31 13:34:01;;;;;;;9.70;5.95;;;4.40;99.90;;;;;;4901474;29;20429;-83
2021/01/31 13:36:27;;;;;;;9.05;5.78;;;4.40;99.90;;;;;;4903796;29;20581;-82
2021/01/31 13:38:53;;;;;;;10.63;6.65;;;4.40;99.90;;;;;;4870370;29;20108;-82
2021/01/31 13:41:20;;;;;;;9.90;6.03;;;4.20;99.90;;;;;;4900110;29;20068;-84
2021/01/31 13:43:48;;;;;;;10.15;6.68;;;4.20;99.90;;;;;;4888320;29;20028;-84
2021/01/31 13:46:15;;;;;;;10.43;6.05;;;4.10;99.90;;;;;;4906907;29;20033;-84
2021/01/31 13:48:43;;;;;;;10.50;6.75;;;4.10;99.90;;;;;;4887846;29;20051;-83
2021/01/31 13:51:40;;;;;;;13.70;7.65;;;4.00;99.90;;;;;;4908151;29;20482;-83
2021/01/31 13:54:10;;;;;;;11.73;7.00;;;3.90;99.90;;;;;;4848250;29;20057;-83
2021/01/31 13:57:02;;;;;;;10.10;6.85;;;4.00;99.90;;;;;;4851092;29;20046;-83